Time;durP1;ratioP1;P1;durP2;ratioP2;P2;SDS_P1;SDS_P2;PMS_P1;PMS_P2;Temp;Humidity;BMP_temperature;BMP_pressure;BME280_temperature;BME280_humidity;BME280_pressure;Samples;Min_cycle;Max_cycle;Signal;HPM_P1;HPM_P2
2023/01/19 00:01:36;;;;;;;10.30;4.33;;;;;;;;;;5070333;28;20225;-79
2023/01/19 00:04:03;;;;;;;12.37;4.57;;;;;;;;;;5070255;28;20220;-80
2023/01/19 00:06:31;;;;;;;9.93;3.73;;;;;;;;;;5069868;28;20201;-80
2023/01/19 00:08:58;;;;;;;8.40;2.50;;;;;;;;;;5069863;28;20254;-79
2023/01/19 00:11:25;;;;;;;8.50;2.67;;;;;;;;;;5059970;28;20603;-80
2023/01/19 00:13:52;;;;;;;10.57;2.80;;;;;;;;;;5067321;28;20197;-80
2023/01/19 00:16:21;;;;;;;13.20;3.83;;;;;;;;;;5070626;28;20205;-82
2023/01/19 00:18:49;;;;;;;16.47;4.33;;;;;;;;;;5070488;28;20201;-79
2023/01/19 00:21:16;;;;;;;9.57;4.27;;;;;;;;;;5070146;28;21320;-79
2023/01/19 00:23:46;;;;;;;11.87;3.03;;;;;;;;;;5056433;28;20217;-79
2023/01/19 00:26:14;;;;;;;11.13;3.40;;;;;;;;;;5069814;28;20216;-79
2023/01/19 00:28:41;;;;;;;15.60;3.27;;;;;;;;;;5070348;28;20200;-79
2023/01/19 00:31:08;;;;;;;8.70;4.07;;;;;;;;;;5072527;28;20213;-79
2023/01/19 00:33:36;;;;;;;12.47;3.43;;;;;;;;;;5067257;28;20206;-79
2023/01/19 00:36:03;;;;;;;13.87;4.13;;;;;;;;;;5066722;28;20725;-79
2023/01/19 00:38:29;;;;;;;10.57;3.20;;;;;;;;;;5060530;28;20599;-80
2023/01/19 00:40:57;;;;;;;18.47;4.03;;;;;;;;;;5060126;28;20291;-80
2023/01/19 00:43:23;;;;;;;12.67;3.23;;;;;;;;;;5040872;28;20194;-79
2023/01/19 00:45:50;;;;;;;15.37;4.50;;;;;;;;;;5066851;28;20599;-82
2023/01/19 00:48:17;;;;;;;7.60;2.77;;;;;;;;;;5073915;28;20734;-79
2023/01/19 00:50:43;;;;;;;11.40;3.33;;;;;;;;;;5073563;28;20213;-80
2023/01/19 00:53:10;;;;;;;11.63;4.57;;;;;;;;;;5073453;28;20286;-79
2023/01/19 00:55:37;;;;;;;13.80;4.00;;;;;;;;;;5059318;28;20571;-80
2023/01/19 00:58:06;;;;;;;16.57;4.10;;;;;;;;;;5060466;28;20230;-80
2023/01/19 01:00:33;;;;;;;19.67;4.83;;;;;;;;;;5072863;28;20286;-80
2023/01/19 01:03:00;;;;;;;13.83;3.60;;;;;;;;;;5066007;28;20205;-79
2023/01/19 01:05:27;;;;;;;16.23;3.03;;;;;;;;;;5066831;28;20201;-80
2023/01/19 01:07:53;;;;;;;14.33;3.83;;;;;;;;;;5061917;28;20197;-80
2023/01/19 01:10:22;;;;;;;13.27;3.77;;;;;;;;;;5072824;28;20205;-79
2023/01/19 01:12:50;;;;;;;16.47;4.83;;;;;;;;;;5064723;28;20217;-79
2023/01/19 01:15:18;;;;;;;9.67;3.87;;;;;;;;;;5068694;28;20197;-79
2023/01/19 01:17:51;;;;;;;11.93;3.73;;;;;;;;;;5072773;28;20201;-79
2023/01/19 01:20:20;;;;;;;16.70;4.90;;;;;;;;;;5073152;28;20201;-80
2023/01/19 01:22:49;;;;;;;20.77;4.43;;;;;;;;;;5062827;28;20216;-79
2023/01/19 01:25:18;;;;;;;18.43;4.27;;;;;;;;;;5070690;28;20278;-79
2023/01/19 01:27:45;;;;;;;13.37;3.57;;;;;;;;;;5072725;28;20692;-80
2023/01/19 01:30:14;;;;;;;18.83;5.13;;;;;;;;;;5073054;28;20606;-79
2023/01/19 01:32:42;;;;;;;8.90;3.20;;;;;;;;;;5060720;28;20206;-79
2023/01/19 01:35:10;;;;;;;13.27;4.00;;;;;;;;;;5066075;28;20210;-79
2023/01/19 01:37:37;;;;;;;13.33;3.60;;;;;;;;;;5065694;28;20205;-80
2023/01/19 01:40:05;;;;;;;18.23;4.67;;;;;;;;;;5059312;28;20744;-79
2023/01/19 01:42:33;;;;;;;12.73;3.57;;;;;;;;;;5072039;28;20270;-79
2023/01/19 01:45:02;;;;;;;11.50;3.80;;;;;;;;;;5072040;28;20201;-79
2023/01/19 01:47:32;;;;;;;14.00;4.13;;;;;;;;;;5059163;28;20213;-79
2023/01/19 01:50:06;;;;;;;13.20;4.13;;;;;;;;;;5072173;28;20201;-79
2023/01/19 01:52:35;;;;;;;16.90;4.27;;;;;;;;;;5072127;28;20254;-79
2023/01/19 01:55:02;;;;;;;18.33;4.27;;;;;;;;;;5063411;28;20203;-79
2023/01/19 01:57:30;;;;;;;13.43;3.57;;;;;;;;;;5068443;28;20734;-80
2023/01/19 01:59:57;;;;;;;17.13;5.90;;;;;;;;;;5072529;28;20202;-80
2023/01/19 02:05:16;;;;;;;17.67;5.03;;;;;;;;;;5064769;28;20211;-79
2023/01/19 02:13:18;;;;;;;19.97;4.43;;;;;;;;;;5071654;28;20212;-79
2023/01/19 02:15:45;;;;;;;15.50;3.33;;;;;;;;;;5071022;28;20205;-79
2023/01/19 02:18:12;;;;;;;13.93;5.77;;;;;;;;;;5071572;28;20209;-79
2023/01/19 02:20:44;;;;;;;11.30;4.20;;;;;;;;;;5071951;28;20588;-79
2023/01/19 02:23:17;;;;;;;16.33;5.37;;;;;;;;;;5058445;28;20209;-79
2023/01/19 02:25:45;;;;;;;15.47;4.57;;;;;;;;;;5071704;28;20216;-78
2023/01/19 02:28:13;;;;;;;22.30;5.43;;;;;;;;;;5071906;28;20209;-79
2023/01/19 02:30:41;;;;;;;18.57;4.67;;;;;;;;;;5062675;28;20587;-79
2023/01/19 02:33:08;;;;;;;10.63;3.50;;;;;;;;;;5068033;28;20200;-80
2023/01/19 02:35:37;;;;;;;12.53;4.97;;;;;;;;;;5071515;28;20695;-79
2023/01/19 02:38:04;;;;;;;19.23;3.80;;;;;;;;;;5071264;28;20225;-79
2023/01/19 02:40:31;;;;;;;18.63;4.57;;;;;;;;;;5071413;28;20204;-80
2023/01/19 02:43:00;;;;;;;32.23;4.30;;;;;;;;;;5054127;28;20275;-80
2023/01/19 02:45:27;;;;;;;11.50;3.47;;;;;;;;;;5051343;28;20763;-79
2023/01/19 02:47:54;;;;;;;19.20;4.47;;;;;;;;;;5069014;28;20268;-79
2023/01/19 02:50:45;;;;;;;11.80;4.50;;;;;;;;;;5060475;28;20228;-79
2023/01/19 02:54:00;;;;;;;8.73;3.67;;;;;;;;;;5029669;28;20701;-80
2023/01/19 02:56:36;;;;;;;14.73;3.40;;;;;;;;;;4996602;28;20203;-80
2023/01/19 02:59:10;;;;;;;15.93;5.07;;;;;;;;;;5058509;28;20754;-80
2023/01/19 03:01:49;;;;;;;21.23;3.97;;;;;;;;;;5060687;28;20614;-79
2023/01/19 03:04:23;;;;;;;14.13;4.33;;;;;;;;;;5070798;28;20227;-79
2023/01/19 03:06:52;;;;;;;13.73;4.47;;;;;;;;;;5070760;28;20255;-79
2023/01/19 03:09:27;;;;;;;10.53;3.60;;;;;;;;;;5070753;28;20205;-79
2023/01/19 03:12:02;;;;;;;17.23;3.87;;;;;;;;;;5070027;28;20207;-80
2023/01/19 03:14:32;;;;;;;22.03;3.93;;;;;;;;;;5059917;28;20200;-79
2023/01/19 03:17:01;;;;;;;19.33;5.97;;;;;;;;;;5070612;28;20254;-84
2023/01/19 03:19:32;;;;;;;18.30;5.43;;;;;;;;;;5071539;28;20269;-79
2023/01/19 03:22:02;;;;;;;20.53;4.47;;;;;;;;;;5057676;28;20777;-80
2023/01/19 03:24:32;;;;;;;28.27;5.13;;;;;;;;;;5060004;28;20209;-79
2023/01/19 03:27:02;;;;;;;13.57;3.97;;;;;;;;;;5064627;28;20206;-79
2023/01/19 03:29:33;;;;;;;16.00;4.20;;;;;;;;;;5063100;28;20216;-80
2023/01/19 03:32:02;;;;;;;16.17;4.27;;;;;;;;;;5070662;28;20193;-81
2023/01/19 03:34:30;;;;;;;22.17;4.90;;;;;;;;;;5057647;28;20204;-79
2023/01/19 03:36:59;;;;;;;15.80;4.90;;;;;;;;;;5063115;28;20201;-80
2023/01/19 03:39:27;;;;;;;19.80;5.13;;;;;;;;;;5056509;28;20197;-79
2023/01/19 03:41:57;;;;;;;22.23;4.43;;;;;;;;;;5068170;28;20266;-80
2023/01/19 03:44:26;;;;;;;10.07;3.27;;;;;;;;;;5061751;28;20254;-80
2023/01/19 03:46:54;;;;;;;14.97;4.53;;;;;;;;;;5066511;28;20215;-80
2023/01/19 03:49:21;;;;;;;14.93;5.00;;;;;;;;;;5068032;28;21070;-79
2023/01/19 03:51:48;;;;;;;17.43;4.83;;;;;;;;;;5057037;28;20620;-80
2023/01/19 03:54:15;;;;;;;22.40;5.10;;;;;;;;;;5058835;28;20212;-80
2023/01/19 03:56:42;;;;;;;21.90;4.90;;;;;;;;;;5057278;28;20641;-80
2023/01/19 03:59:09;;;;;;;17.73;4.37;;;;;;;;;;5071108;28;20318;-79
2023/01/19 04:01:36;;;;;;;18.67;5.10;;;;;;;;;;5069632;28;20222;-79
2023/01/19 04:04:04;;;;;;;12.93;3.73;;;;;;;;;;5070479;28;20205;-82
2023/01/19 04:06:30;;;;;;;18.40;4.57;;;;;;;;;;5066420;28;20213;-79
2023/01/19 04:08:57;;;;;;;10.90;4.10;;;;;;;;;;5068348;28;20233;-79
2023/01/19 04:11:24;;;;;;;21.57;5.90;;;;;;;;;;5074270;28;20197;-79
2023/01/19 04:13:51;;;;;;;13.30;4.90;;;;;;;;;;5074397;28;20208;-79
2023/01/19 04:16:19;;;;;;;17.50;5.37;;;;;;;;;;5074007;28;20213;-79
2023/01/19 04:18:46;;;;;;;15.23;4.17;;;;;;;;;;5073875;28;20209;-79
2023/01/19 04:21:14;;;;;;;15.50;4.20;;;;;;;;;;5065413;28;20201;-80
2023/01/19 04:23:43;;;;;;;16.00;5.30;;;;;;;;;;5069145;28;20205;-79
2023/01/19 04:26:09;;;;;;;20.60;5.27;;;;;;;;;;5073709;28;20205;-78
2023/01/19 04:28:36;;;;;;;20.50;4.00;;;;;;;;;;5073176;28;20710;-81
2023/01/19 04:31:04;;;;;;;14.47;5.47;;;;;;;;;;5056848;28;20201;-78
2023/01/19 04:33:31;;;;;;;35.13;6.17;;;;;;;;;;5073496;28;20683;-78
2023/01/19 04:35:57;;;;;;;14.87;4.70;;;;;;;;;;5072761;28;21942;-78
2023/01/19 04:38:26;;;;;;;26.30;5.83;;;;;;;;;;5073329;28;20216;-77
2023/01/19 04:40:53;;;;;;;29.80;5.03;;;;;;;;;;5072695;28;20667;-78
2023/01/19 04:43:20;;;;;;;31.77;9.53;;;;;;;;;;5061514;28;20716;-78
2023/01/19 04:45:47;;;;;;;32.17;5.73;;;;;;;;;;5072084;28;20197;-78
2023/01/19 04:48:15;;;;;;;27.97;8.07;;;;;;;;;;5073830;28;20197;-80
2023/01/19 04:50:42;;;;;;;15.50;4.57;;;;;;;;;;5073051;28;20197;-81
2023/01/19 04:53:08;;;;;;;20.80;6.03;;;;;;;;;;5073396;28;20211;-81
2023/01/19 04:55:37;;;;;;;24.37;6.77;;;;;;;;;;5058627;28;20202;-82
2023/01/19 04:58:04;;;;;;;22.87;6.63;;;;;;;;;;5073597;28;20647;-80
2023/01/19 05:00:32;;;;;;;17.73;5.60;;;;;;;;;;5067075;28;20205;-81
2023/01/19 05:02:59;;;;;;;27.77;10.67;;;;;;;;;;5062433;28;20227;-81
2023/01/19 05:05:27;;;;;;;24.50;5.87;;;;;;;;;;5059756;28;20217;-80
2023/01/19 05:07:53;;;;;;;17.87;4.57;;;;;;;;;;5072854;28;20229;-80
2023/01/19 05:10:20;;;;;;;20.83;6.17;;;;;;;;;;5054639;28;20194;-81
2023/01/19 05:12:49;;;;;;;17.90;4.23;;;;;;;;;;5047736;28;20205;-82
2023/01/19 05:15:16;;;;;;;28.90;5.43;;;;;;;;;;5061127;28;20259;-81
2023/01/19 05:17:43;;;;;;;27.33;9.77;;;;;;;;;;5063604;28;20251;-82
2023/01/19 05:20:11;;;;;;;16.57;5.93;;;;;;;;;;5064182;28;20293;-82
2023/01/19 05:22:38;;;;;;;31.13;7.87;;;;;;;;;;5058795;28;20222;-81
2023/01/19 05:25:07;;;;;;;15.23;4.00;;;;;;;;;;5065845;28;20255;-81
2023/01/19 05:27:34;;;;;;;18.70;5.50;;;;;;;;;;5063058;28;20209;-80
2023/01/19 05:30:03;;;;;;;19.13;5.33;;;;;;;;;;5066390;28;20202;-81
2023/01/19 05:32:30;;;;;;;16.93;5.43;;;;;;;;;;5060210;28;20243;-80
2023/01/19 05:34:57;;;;;;;25.37;5.77;;;;;;;;;;5059126;28;20580;-81
2023/01/19 05:37:24;;;;;;;24.70;7.40;;;;;;;;;;5073397;28;20205;-80
2023/01/19 05:39:50;;;;;;;18.67;4.43;;;;;;;;;;5054661;28;20198;-80
2023/01/19 05:42:17;;;;;;;18.77;5.33;;;;;;;;;;5052957;28;20226;-80
2023/01/19 05:44:44;;;;;;;20.13;5.53;;;;;;;;;;5052464;28;20213;-80
2023/01/19 05:47:12;;;;;;;28.53;6.87;;;;;;;;;;5055855;28;20332;-80
2023/01/19 05:49:39;;;;;;;25.20;7.60;;;;;;;;;;5064559;28;20267;-80
2023/01/19 05:52:06;;;;;;;13.00;5.00;;;;;;;;;;5063892;28;20205;-80
2023/01/19 05:54:33;;;;;;;25.97;9.30;;;;;;;;;;5065009;28;20201;-81
2023/01/19 05:57:00;;;;;;;23.20;6.23;;;;;;;;;;5052827;28;20201;-80
2023/01/19 05:59:27;;;;;;;24.33;5.47;;;;;;;;;;5058071;28;20239;-80
2023/01/19 06:01:54;;;;;;;16.83;5.23;;;;;;;;;;5071606;28;20208;-80
2023/01/19 06:04:22;;;;;;;32.30;9.10;;;;;;;;;;5071703;28;20251;-80
2023/01/19 06:06:49;;;;;;;22.17;5.30;;;;;;;;;;5059601;28;20209;-80
2023/01/19 06:09:17;;;;;;;18.20;9.10;;;;;;;;;;5065215;28;20210;-80
2023/01/19 06:11:43;;;;;;;22.40;6.03;;;;;;;;;;5064867;28;20228;-80
2023/01/19 06:14:11;;;;;;;31.03;8.87;;;;;;;;;;5056720;28;20214;-77
2023/01/19 06:16:37;;;;;;;20.17;5.80;;;;;;;;;;5070219;28;20197;-78
2023/01/19 06:19:04;;;;;;;19.07;5.00;;;;;;;;;;5071674;28;20208;-76
2023/01/19 06:21:33;;;;;;;24.93;8.80;;;;;;;;;;5070557;28;20205;-76
2023/01/19 06:23:59;;;;;;;16.17;4.77;;;;;;;;;;5071714;28;20596;-76
2023/01/19 06:26:26;;;;;;;20.80;6.37;;;;;;;;;;5070878;28;20201;-76
2023/01/19 06:28:53;;;;;;;20.53;6.03;;;;;;;;;;5071284;28;20633;-77
2023/01/19 06:31:20;;;;;;;16.80;4.53;;;;;;;;;;5071303;28;20207;-77
2023/01/19 06:33:46;;;;;;;17.63;6.87;;;;;;;;;;5071536;28;20655;-77
2023/01/19 06:36:13;;;;;;;16.63;5.33;;;;;;;;;;5062691;28;20209;-77
2023/01/19 06:38:41;;;;;;;22.00;6.50;;;;;;;;;;5065234;28;20209;-78
2023/01/19 06:41:08;;;;;;;15.87;4.53;;;;;;;;;;5070973;28;20213;-77
2023/01/19 06:43:35;;;;;;;13.20;4.37;;;;;;;;;;5058974;28;20233;-77
2023/01/19 06:46:02;;;;;;;23.80;5.30;;;;;;;;;;5069016;28;20201;-76
2023/01/19 06:48:29;;;;;;;18.90;4.37;;;;;;;;;;5070648;28;20208;-77
2023/01/19 06:50:56;;;;;;;23.27;6.43;;;;;;;;;;5070319;28;20991;-77
2023/01/19 06:53:23;;;;;;;15.83;5.00;;;;;;;;;;5070937;28;20219;-76
2023/01/19 06:55:51;;;;;;;18.47;5.93;;;;;;;;;;5070682;28;20200;-77
2023/01/19 06:58:17;;;;;;;26.97;5.03;;;;;;;;;;5071150;28;20236;-76
2023/01/19 07:00:44;;;;;;;22.63;7.73;;;;;;;;;;5070467;28;20212;-76
2023/01/19 07:03:19;;;;;;;30.23;14.50;;;;;;;;;;5070889;28;20231;-77
2023/01/19 07:05:45;;;;;;;35.43;15.53;;;;;;;;;;5070363;28;20655;-77
2023/01/19 07:08:14;;;;;;;22.00;7.80;;;;;;;;;;5070612;28;20250;-77
2023/01/19 07:10:40;;;;;;;24.37;7.87;;;;;;;;;;5070426;28;20201;-77
2023/01/19 07:13:09;;;;;;;23.87;6.47;;;;;;;;;;5065450;28;20673;-77
2023/01/19 07:15:37;;;;;;;20.73;5.97;;;;;;;;;;5069300;28;20193;-77
2023/01/19 07:18:06;;;;;;;21.90;5.73;;;;;;;;;;5070864;28;20228;-77
2023/01/19 07:20:33;;;;;;;17.10;4.77;;;;;;;;;;5070527;28;20201;-78
2023/01/19 07:23:00;;;;;;;19.23;5.47;;;;;;;;;;5070113;28;20240;-78
2023/01/19 07:25:27;;;;;;;19.57;5.47;;;;;;;;;;5048490;28;20750;-78
2023/01/19 07:27:57;;;;;;;22.67;5.30;;;;;;;;;;5054470;28;20198;-78
2023/01/19 07:30:25;;;;;;;17.83;4.57;;;;;;;;;;5065818;28;20200;-77
2023/01/19 07:32:55;;;;;;;21.03;5.93;;;;;;;;;;5068783;28;20214;-78
2023/01/19 07:35:21;;;;;;;17.03;3.60;;;;;;;;;;5059257;28;20205;-76
2023/01/19 07:37:51;;;;;;;23.00;5.87;;;;;;;;;;5067553;28;20291;-76
2023/01/19 07:40:18;;;;;;;23.83;5.60;;;;;;;;;;5061132;28;20209;-76
2023/01/19 07:42:49;;;;;;;20.47;4.70;;;;;;;;;;5073694;28;20307;-77
2023/01/19 07:45:16;;;;;;;20.33;5.90;;;;;;;;;;5073574;28;20658;-77
2023/01/19 07:47:45;;;;;;;29.60;4.90;;;;;;;;;;5070257;28;20296;-78
2023/01/19 07:50:20;;;;;;;28.67;6.53;;;;;;;;;;5054535;28;20216;-80
2023/01/19 07:52:49;;;;;;;17.77;5.13;;;;;;;;;;5067510;28;20239;-78
2023/01/19 07:55:16;;;;;;;29.40;6.67;;;;;;;;;;5067527;28;20196;-77
2023/01/19 07:57:42;;;;;;;26.73;8.57;;;;;;;;;;5057762;28;20228;-79
2023/01/19 08:00:13;;;;;;;19.63;4.73;;;;;;;;;;5065242;28;20208;-79
2023/01/19 08:02:40;;;;;;;15.80;5.57;;;;;;;;;;5060264;28;20315;-80
2023/01/19 08:05:09;;;;;;;19.07;4.40;;;;;;;;;;5071507;28;20201;-79
2023/01/19 08:07:35;;;;;;;19.63;4.80;;;;;;;;;;5068867;28;20197;-78
2023/01/19 08:10:03;;;;;;;11.57;3.63;;;;;;;;;;5057023;28;20204;-79
2023/01/19 08:12:29;;;;;;;30.77;8.07;;;;;;;;;;5053737;28;20206;-79
2023/01/19 08:14:56;;;;;;;20.53;5.67;;;;;;;;;;5059174;28;20734;-79
2023/01/19 08:17:23;;;;;;;13.93;4.57;;;;;;;;;;5053762;28;20209;-78
2023/01/19 08:19:50;;;;;;;20.83;5.97;;;;;;;;;;5056094;28;20285;-78
2023/01/19 08:22:18;;;;;;;24.60;5.93;;;;;;;;;;5058078;28;20206;-79
2023/01/19 08:24:45;;;;;;;18.23;5.00;;;;;;;;;;5053740;28;20245;-80
2023/01/19 08:27:11;;;;;;;11.17;4.63;;;;;;;;;;5056670;28;20202;-80
2023/01/19 08:29:38;;;;;;;22.67;4.30;;;;;;;;;;5053829;28;20205;-78
2023/01/19 08:32:05;;;;;;;13.90;4.73;;;;;;;;;;5053536;28;20796;-78
2023/01/19 08:34:32;;;;;;;12.20;4.27;;;;;;;;;;5056636;28;20204;-78
2023/01/19 08:36:59;;;;;;;11.63;3.20;;;;;;;;;;5057587;28;20704;-79
2023/01/19 08:39:27;;;;;;;29.83;6.17;;;;;;;;;;5055518;28;20224;-78
2023/01/19 08:41:54;;;;;;;10.60;3.30;;;;;;;;;;5057481;28;20651;-78
2023/01/19 08:44:21;;;;;;;20.03;6.17;;;;;;;;;;5071037;28;20238;-78
2023/01/19 08:46:48;;;;;;;25.57;8.03;;;;;;;;;;5067733;28;20236;-78
2023/01/19 08:49:16;;;;;;;17.67;6.77;;;;;;;;;;5063558;28;20201;-78
2023/01/19 08:51:45;;;;;;;12.87;5.67;;;;;;;;;;5064015;28;20298;-79
2023/01/19 08:54:12;;;;;;;24.43;7.93;;;;;;;;;;5066702;28;20254;-79
2023/01/19 08:56:40;;;;;;;20.73;8.13;;;;;;;;;;5062008;28;20216;-78
2023/01/19 08:59:06;;;;;;;17.47;6.23;;;;;;;;;;5058417;28;20228;-79
2023/01/19 09:01:33;;;;;;;27.93;8.87;;;;;;;;;;5063667;28;20206;-78
2023/01/19 09:04:00;;;;;;;14.00;8.13;;;;;;;;;;5068843;28;20275;-79
2023/01/19 09:06:27;;;;;;;16.37;6.23;;;;;;;;;;5072475;28;20212;-79
2023/01/19 09:08:54;;;;;;;21.57;7.97;;;;;;;;;;5061679;28;20205;-79
2023/01/19 09:11:21;;;;;;;21.53;6.30;;;;;;;;;;5053125;28;20206;-78
2023/01/19 09:13:52;;;;;;;14.30;4.40;;;;;;;;;;5058401;28;20205;-79
2023/01/19 09:16:19;;;;;;;10.90;5.30;;;;;;;;;;5065292;28;20627;-79
2023/01/19 09:18:45;;;;;;;21.57;6.53;;;;;;;;;;5059432;28;20201;-78
2023/01/19 09:21:13;;;;;;;16.17;5.27;;;;;;;;;;5072851;28;20201;-79
2023/01/19 09:23:40;;;;;;;13.03;6.87;;;;;;;;;;5068075;28;20294;-79
2023/01/19 09:26:07;;;;;;;7.17;3.47;;;;;;;;;;5072213;28;20554;-81
2023/01/19 09:28:34;;;;;;;15.50;5.23;;;;;;;;;;5063607;28;20202;-78
2023/01/19 09:31:06;;;;;;;14.67;5.73;;;;;;;;;;5061736;28;20266;-79
2023/01/19 09:33:33;;;;;;;20.30;6.33;;;;;;;;;;5065346;28;20313;-78
2023/01/19 09:36:00;;;;;;;7.03;4.33;;;;;;;;;;5054255;28;20202;-78
2023/01/19 09:38:30;;;;;;;9.67;3.70;;;;;;;;;;5050146;28;20198;-78
2023/01/19 09:40:57;;;;;;;6.80;4.13;;;;;;;;;;5067779;28;20205;-78
2023/01/19 09:43:35;;;;;;;20.00;4.10;;;;;;;;;;5069209;28;20249;-78
2023/01/19 09:46:08;;;;;;;21.50;6.53;;;;;;;;;;5056781;28;20275;-81
2023/01/19 09:48:44;;;;;;;7.80;4.30;;;;;;;;;;5058722;28;20201;-78
2023/01/19 09:51:15;;;;;;;19.30;4.53;;;;;;;;;;5071596;28;20284;-78
2023/01/19 09:53:54;;;;;;;13.77;4.93;;;;;;;;;;5072672;28;20205;-78
2023/01/19 09:56:21;;;;;;;17.07;5.03;;;;;;;;;;5058182;28;20212;-78
2023/01/19 09:58:50;;;;;;;13.33;4.13;;;;;;;;;;5061126;28;20234;-78
2023/01/19 10:01:41;;;;;;;9.30;4.57;;;;;;;;;;5052157;28;20292;-79
2023/01/19 10:04:28;;;;;;;6.37;4.17;;;;;;;;;;5050508;28;20313;-78
2023/01/19 10:07:21;;;;;;;17.60;2.90;;;;;;;;;;5048168;28;20201;-78
2023/01/19 10:09:59;;;;;;;6.57;2.87;;;;;;;;;;5049851;28;20206;-77
2023/01/19 10:12:36;;;;;;;11.90;3.40;;;;;;;;;;5056229;28;20205;-77
2023/01/19 10:15:09;;;;;;;16.03;3.47;;;;;;;;;;5068916;28;20647;-78
2023/01/19 10:17:46;;;;;;;17.30;3.30;;;;;;;;;;5058688;28;20212;-78
2023/01/19 10:20:24;;;;;;;9.30;2.80;;;;;;;;;;5057910;28;20601;-78
2023/01/19 10:22:51;;;;;;;13.73;5.10;;;;;;;;;;5069016;28;20316;-78
2023/01/19 10:25:22;;;;;;;19.83;4.17;;;;;;;;;;5070670;28;20655;-78
2023/01/19 10:27:52;;;;;;;6.83;4.43;;;;;;;;;;5054414;28;20233;-78
2023/01/19 10:30:22;;;;;;;19.17;5.57;;;;;;;;;;5061925;28;20211;-78
2023/01/19 10:32:50;;;;;;;14.23;4.47;;;;;;;;;;5063319;28;20634;-77
2023/01/19 10:35:23;;;;;;;12.47;3.33;;;;;;;;;;5071167;28;20201;-77
2023/01/19 10:37:50;;;;;;;14.83;4.07;;;;;;;;;;5071643;28;20220;-77
2023/01/19 10:40:31;;;;;;;21.30;6.53;;;;;;;;;;5071035;28;20648;-79
2023/01/19 10:42:57;;;;;;;9.13;4.40;;;;;;;;;;5047604;28;20256;-77
2023/01/19 10:45:27;;;;;;;6.10;2.73;;;;;;;;;;5070907;28;20235;-78
2023/01/19 10:47:58;;;;;;;8.97;4.73;;;;;;;;;;5062613;28;20233;-77
2023/01/19 10:50:27;;;;;;;11.10;2.63;;;;;;;;;;5062856;28;20232;-79
2023/01/19 10:52:55;;;;;;;12.10;2.83;;;;;;;;;;5049554;28;20251;-77
2023/01/19 10:55:27;;;;;;;9.63;2.70;;;;;;;;;;5051350;28;20211;-77
2023/01/19 10:57:55;;;;;;;10.47;2.77;;;;;;;;;;5054502;28;20701;-77
2023/01/19 11:00:36;;;;;;;8.87;3.80;;;;;;;;;;5048505;28;20206;-78
2023/01/19 11:03:05;;;;;;;6.37;2.33;;;;;;;;;;5053972;28;20196;-78
2023/01/19 11:05:33;;;;;;;9.10;2.50;;;;;;;;;;5070057;28;21840;-77
2023/01/19 11:08:00;;;;;;;9.47;3.07;;;;;;;;;;5057626;28;20689;-78
2023/01/19 11:10:28;;;;;;;12.30;3.23;;;;;;;;;;5059189;28;20203;-77
2023/01/19 11:13:06;;;;;;;12.27;4.13;;;;;;;;;;5048034;28;20255;-77
2023/01/19 11:15:35;;;;;;;14.67;3.87;;;;;;;;;;5058876;28;20201;-76
2023/01/19 11:18:04;;;;;;;12.17;3.03;;;;;;;;;;5070939;28;20203;-77
2023/01/19 11:20:42;;;;;;;15.57;3.90;;;;;;;;;;5070696;28;20208;-76
2023/01/19 11:23:19;;;;;;;6.03;3.13;;;;;;;;;;5059678;28;20709;-77
2023/01/19 11:25:48;;;;;;;4.93;2.47;;;;;;;;;;5070319;28;20224;-76
2023/01/19 11:28:18;;;;;;;6.40;1.77;;;;;;;;;;5069830;28;20217;-77
2023/01/19 11:30:54;;;;;;;9.87;2.90;;;;;;;;;;5070412;28;20201;-77
2023/01/19 11:33:28;;;;;;;10.23;3.10;;;;;;;;;;5070784;28;20242;-76
2023/01/19 11:36:03;;;;;;;13.00;3.67;;;;;;;;;;5070280;28;20205;-76
2023/01/19 11:38:30;;;;;;;14.43;2.70;;;;;;;;;;5044609;28;20208;-75
2023/01/19 11:40:58;;;;;;;16.63;3.53;;;;;;;;;;5069693;28;20698;-76
2023/01/19 11:43:29;;;;;;;4.30;1.67;;;;;;;;;;5069515;28;20205;-80
2023/01/19 11:45:57;;;;;;;13.30;4.50;;;;;;;;;;5060281;28;20202;-77
2023/01/19 11:48:30;;;;;;;8.43;3.30;;;;;;;;;;5053598;28;20210;-77
2023/01/19 11:50:58;;;;;;;8.70;3.93;;;;;;;;;;5054651;28;20252;-76
2023/01/19 11:53:27;;;;;;;15.03;3.30;;;;;;;;;;5070190;28;20212;-77
2023/01/19 11:55:56;;;;;;;14.23;3.67;;;;;;;;;;5069907;28;20201;-77
2023/01/19 11:58:24;;;;;;;10.77;3.93;;;;;;;;;;5070075;28;20234;-77
2023/01/19 12:00:54;;;;;;;6.00;2.00;;;;;;;;;;5069887;28;20683;-77
2023/01/19 12:03:24;;;;;;;8.20;2.73;;;;;;;;;;5070191;28;20225;-77
2023/01/19 12:05:55;;;;;;;5.60;1.77;;;;;;;;;;5069626;28;20233;-76
2023/01/19 12:08:25;;;;;;;7.00;2.10;;;;;;;;;;5070286;28;20228;-76
2023/01/19 12:10:54;;;;;;;12.80;2.70;;;;;;;;;;5069816;28;20205;-77
2023/01/19 12:13:22;;;;;;;9.57;2.53;;;;;;;;;;5058447;28;20270;-77
2023/01/19 12:15:54;;;;;;;11.67;2.30;;;;;;;;;;5058369;28;20677;-77
2023/01/19 12:18:22;;;;;;;13.50;3.40;;;;;;;;;;5050524;28;20233;-76
2023/01/19 12:20:51;;;;;;;8.17;3.27;;;;;;;;;;5064005;28;20201;-76
2023/01/19 12:23:27;;;;;;;9.37;1.83;;;;;;;;;;5053723;28;20230;-77
2023/01/19 12:26:02;;;;;;;7.87;2.90;;;;;;;;;;5050403;28;20241;-77
2023/01/19 12:28:31;;;;;;;9.33;2.60;;;;;;;;;;5068568;28;20205;-78
2023/01/19 12:30:59;;;;;;;10.00;5.40;;;;;;;;;;5061364;28;20197;-78
2023/01/19 12:33:34;;;;;;;7.57;4.53;;;;;;;;;;5073359;28;20201;-80
2023/01/19 12:36:05;;;;;;;9.97;7.80;;;;;;;;;;5061768;28;20243;-79
2023/01/19 12:38:47;;;;;;;4.10;2.37;;;;;;;;;;5057988;28;20264;-79
2023/01/19 12:41:19;;;;;;;5.13;2.60;;;;;;;;;;5065188;28;20206;-80
2023/01/19 12:43:46;;;;;;;12.57;5.43;;;;;;;;;;5073158;28;20197;-79
2023/01/19 12:46:20;;;;;;;11.70;5.07;;;;;;;;;;5072911;28;20627;-79
2023/01/19 12:48:47;;;;;;;13.17;2.83;;;;;;;;;;5047388;28;20204;-80
2023/01/19 12:51:23;;;;;;;6.23;3.73;;;;;;;;;;5058750;28;20582;-79
2023/01/19 12:53:53;;;;;;;11.53;2.97;;;;;;;;;;5073034;28;20748;-79
2023/01/19 12:56:20;;;;;;;6.53;2.67;;;;;;;;;;5053055;28;20667;-80
2023/01/19 12:58:49;;;;;;;3.97;1.90;;;;;;;;;;5066708;28;20728;-80
2023/01/19 13:01:19;;;;;;;9.43;2.27;;;;;;;;;;5046980;28;20775;-79
2023/01/19 13:03:59;;;;;;;3.83;2.70;;;;;;;;;;5072409;28;20281;-80
2023/01/19 13:07:09;;;;;;;3.07;2.50;;;;;;;;;;5073383;28;20196;-79
2023/01/19 13:09:38;;;;;;;6.23;2.60;;;;;;;;;;5048938;28;20349;-79
2023/01/19 13:12:18;;;;;;;6.03;2.40;;;;;;;;;;5073202;28;20197;-80
2023/01/19 13:14:46;;;;;;;3.10;1.80;;;;;;;;;;5062491;28;20202;-80
2023/01/19 13:17:32;;;;;;;6.13;2.07;;;;;;;;;;5070413;28;20206;-83
2023/01/19 13:20:04;;;;;;;3.17;1.83;;;;;;;;;;5057522;28;20220;-80
2023/01/19 13:23:13;;;;;;;7.53;2.10;;;;;;;;;;5062115;28;20205;-80
2023/01/19 13:25:49;;;;;;;9.87;2.27;;;;;;;;;;5040242;28;20811;-77
2023/01/19 13:28:18;;;;;;;4.77;1.97;;;;;;;;;;5057238;28;20208;-77
2023/01/19 13:30:56;;;;;;;9.90;2.63;;;;;;;;;;5072298;28;20649;-79
2023/01/19 13:33:25;;;;;;;4.27;3.30;;;;;;;;;;5072210;28;20205;-77
2023/01/19 13:35:55;;;;;;;9.57;2.20;;;;;;;;;;5071896;28;20201;-77
2023/01/19 13:38:23;;;;;;;3.93;1.70;;;;;;;;;;5045412;28;20308;-77
2023/01/19 13:40:53;;;;;;;12.60;3.17;;;;;;;;;;5071975;28;20288;-77
2023/01/19 13:43:24;;;;;;;11.53;3.57;;;;;;;;;;5072836;28;20251;-77
2023/01/19 13:45:51;;;;;;;6.60;2.57;;;;;;;;;;5071636;28;20251;-77
2023/01/19 13:48:21;;;;;;;5.33;2.87;;;;;;;;;;5072251;28;20202;-78
2023/01/19 13:51:00;;;;;;;4.13;2.43;;;;;;;;;;5071976;28;20202;-77
2023/01/19 13:53:28;;;;;;;4.53;2.23;;;;;;;;;;5071878;28;20773;-77
2023/01/19 13:56:17;;;;;;;3.13;2.00;;;;;;;;;;5071713;28;20206;-77
2023/01/19 13:58:44;;;;;;;3.07;1.77;;;;;;;;;;5071898;28;20589;-77
2023/01/19 14:01:21;;;;;;;8.50;2.27;;;;;;;;;;5071308;28;20258;-77
2023/01/19 14:03:51;;;;;;;11.63;2.17;;;;;;;;;;5071713;28;20208;-78
2023/01/19 14:06:22;;;;;;;7.63;4.07;;;;;;;;;;5071665;28;20228;-78
2023/01/19 14:09:06;;;;;;;9.43;5.07;;;;;;;;;;5071308;28;20657;-77
2023/01/19 14:11:34;;;;;;;14.80;2.80;;;;;;;;;;5071677;28;20212;-77
2023/01/19 14:14:01;;;;;;;4.00;2.83;;;;;;;;;;5062921;28;20205;-77
2023/01/19 14:16:28;;;;;;;4.83;2.80;;;;;;;;;;5062732;28;20212;-77
2023/01/19 14:19:00;;;;;;;8.40;3.50;;;;;;;;;;5052612;28;20213;-79
2023/01/19 14:21:37;;;;;;;5.33;2.93;;;;;;;;;;5070679;28;20270;-76
2023/01/19 14:24:09;;;;;;;8.67;4.70;;;;;;;;;;5071372;28;20699;-77
2023/01/19 14:26:48;;;;;;;11.63;4.83;;;;;;;;;;5067249;28;20228;-77
2023/01/19 14:29:22;;;;;;;10.70;5.27;;;;;;;;;;5071117;28;20209;-77
2023/01/19 14:31:51;;;;;;;10.57;3.87;;;;;;;;;;5070814;28;20623;-78
2023/01/19 14:34:30;;;;;;;3.30;1.93;;;;;;;;;;5071612;28;20626;-78
2023/01/19 14:36:56;;;;;;;10.97;5.00;;;;;;;;;;5057486;28;20197;-79
2023/01/19 14:39:27;;;;;;;8.73;4.60;;;;;;;;;;5071814;28;20201;-78
2023/01/19 14:41:59;;;;;;;13.20;6.57;;;;;;;;;;5070887;28;20189;-78
2023/01/19 14:44:30;;;;;;;7.10;4.20;;;;;;;;;;5071245;28;20613;-78
2023/01/19 14:46:58;;;;;;;15.47;3.77;;;;;;;;;;5070800;28;20258;-79
2023/01/19 14:49:30;;;;;;;9.17;4.87;;;;;;;;;;5071492;28;20288;-78
2023/01/19 14:51:57;;;;;;;9.50;3.47;;;;;;;;;;5070372;28;20201;-82
2023/01/19 14:54:30;;;;;;;12.13;4.60;;;;;;;;;;5054194;28;20205;-78
2023/01/19 14:56:58;;;;;;;3.10;2.00;;;;;;;;;;5054534;28;20205;-79